sensor_id;sensor_type;location;lat;lon;timestamp;temperature;humidity
12771;DHT22;6449;47.666;9.160;2024-01-15T00:02:45;0.70;99.90
12771;DHT22;6449;47.666;9.160;2024-01-15T00:07:41;0.80;99.90
12771;DHT22;6449;47.666;9.160;2024-01-15T00:12:35;0.90;99.90
12771;DHT22;6449;47.666;9.160;2024-01-15T00:17:28;1.00;99.90
12771;DHT22;6449;47.666;9.160;2024-01-15T00:22:23;1.10;99.90
12771;DHT22;6449;47.666;9.160;2024-01-15T00:27:19;1.10;99.90
12771;DHT22;6449;47.666;9.160;2024-01-15T00:32:13;1.10;99.90
12771;DHT22;6449;47.666;9.160;2024-01-15T00:37:06;1.10;99.90
12771;DHT22;6449;47.666;9.160;2024-01-15T00:41:59;1.10;99.90
12771;DHT22;6449;47.666;9.160;2024-01-15T00:46:54;1.10;99.90
12771;DHT22;6449;47.666;9.160;2024-01-15T00:51:48;1.10;99.90
12771;DHT22;6449;47.666;9.160;2024-01-15T00:56:41;1.00;99.90
12771;DHT22;6449;47.666;9.160;2024-01-15T01:01:35;1.00;99.90
12771;DHT22;6449;47.666;9.160;2024-01-15T01:06:31;1.00;99.90
12771;DHT22;6449;47.666;9.160;2024-01-15T01:11:25;0.90;99.90
12771;DHT22;6449;47.666;9.160;2024-01-15T01:16:18;0.90;99.90
12771;DHT22;6449;47.666;9.160;2024-01-15T01:21:12;0.90;99.90
12771;DHT22;6449;47.666;9.160;2024-01-15T01:26:06;0.90;99.90
12771;DHT22;6449;47.666;9.160;2024-01-15T01:31:00;0.80;99.90
12771;DHT22;6449;47.666;9.160;2024-01-15T01:35:53;0.90;99.90
12771;DHT22;6449;47.666;9.160;2024-01-15T01:40:49;0.90;99.90
12771;DHT22;6449;47.666;9.160;2024-01-15T01:45:43;0.90;99.90
12771;DHT22;6449;47.666;9.160;2024-01-15T01:50:37;0.80;99.90
12771;DHT22;6449;47.666;9.160;2024-01-15T01:55:31;0.90;99.90
12771;DHT22;6449;47.666;9.160;2024-01-15T02:00:26;0.90;99.90
12771;DHT22;6449;47.666;9.160;2024-01-15T02:05:22;0.90;99.90
12771;DHT22;6449;47.666;9.160;2024-01-15T02:10:16;1.00;99.90
12771;DHT22;6449;47.666;9.160;2024-01-15T02:15:10;0.90;99.90
12771;DHT22;6449;47.666;9.160;2024-01-15T02:20:06;0.80;99.90
12771;DHT22;6449;47.666;9.160;2024-01-15T02:25:01;0.80;99.90
12771;DHT22;6449;47.666;9.160;2024-01-15T02:29:55;0.80;99.90
12771;DHT22;6449;47.666;9.160;2024-01-15T02:34:49;0.70;99.90
12771;DHT22;6449;47.666;9.160;2024-01-15T02:39:42;0.60;99.90
12771;DHT22;6449;47.666;9.160;2024-01-15T02:44:37;0.60;99.90
12771;DHT22;6449;47.666;9.160;2024-01-15T02:49:30;0.60;99.90
12771;DHT22;6449;47.666;9.160;2024-01-15T02:54:25;0.60;99.90
12771;DHT22;6449;47.666;9.160;2024-01-15T02:59:18;0.60;99.90
12771;DHT22;6449;47.666;9.160;2024-01-15T03:04:13;0.50;99.90
12771;DHT22;6449;47.666;9.160;2024-01-15T03:09:06;0.40;99.90
12771;DHT22;6449;47.666;9.160;2024-01-15T03:14:00;0.30;99.90
12771;DHT22;6449;47.666;9.160;2024-01-15T03:18:54;0.30;99.90
12771;DHT22;6449;47.666;9.160;2024-01-15T03:23:48;0.10;99.90
12771;DHT22;6449;47.666;9.160;2024-01-15T03:28:42;0.10;99.90
12771;DHT22;6449;47.666;9.160;2024-01-15T03:33:35;0.00;99.90
12771;DHT22;6449;47.666;9.160;2024-01-15T03:38:29;0.00;99.90
12771;DHT22;6449;47.666;9.160;2024-01-15T03:43:23;0.00;99.90
12771;DHT22;6449;47.666;9.160;2024-01-15T03:48:17;0.00;99.90
12771;DHT22;6449;47.666;9.160;2024-01-15T03:53:10;-0.10;99.90
12771;DHT22;6449;47.666;9.160;2024-01-15T03:58:04;-0.10;99.90
12771;DHT22;6449;47.666;9.160;2024-01-15T04:02:58;-0.10;99.90
12771;DHT22;6449;47.666;9.160;2024-01-15T04:07:52;-0.10;99.90
12771;DHT22;6449;47.666;9.160;2024-01-15T04:12:45;-0.10;99.90
12771;DHT22;6449;47.666;9.160;2024-01-15T04:17:39;0.00;99.90
12771;DHT22;6449;47.666;9.160;2024-01-15T04:22:35;0.00;99.90
12771;DHT22;6449;47.666;9.160;2024-01-15T04:27:28;0.00;99.90
12771;DHT22;6449;47.666;9.160;2024-01-15T04:32:22;0.00;99.90
12771;DHT22;6449;47.666;9.160;2024-01-15T04:37:15;-0.10;99.90
12771;DHT22;6449;47.666;9.160;2024-01-15T04:42:12;-0.10;99.90
12771;DHT22;6449;47.666;9.160;2024-01-15T04:47:06;-0.10;99.90
12771;DHT22;6449;47.666;9.160;2024-01-15T04:51:59;0.00;99.90
12771;DHT22;6449;47.666;9.160;2024-01-15T04:56:52;0.00;99.90
12771;DHT22;6449;47.666;9.160;2024-01-15T05:01:47;0.10;99.90
12771;DHT22;6449;47.666;9.160;2024-01-15T05:06:41;0.10;99.90
12771;DHT22;6449;47.666;9.160;2024-01-15T05:11:35;0.00;99.90
12771;DHT22;6449;47.666;9.160;2024-01-15T05:16:28;-0.10;99.90
12771;DHT22;6449;47.666;9.160;2024-01-15T05:21:23;-0.10;99.90
12771;DHT22;6449;47.666;9.160;2024-01-15T05:26:16;-0.10;99.90
12771;DHT22;6449;47.666;9.160;2024-01-15T05:31:09;0.00;99.90
12771;DHT22;6449;47.666;9.160;2024-01-15T05:36:04;0.00;99.90
12771;DHT22;6449;47.666;9.160;2024-01-15T05:40:59;0.00;99.90
12771;DHT22;6449;47.666;9.160;2024-01-15T05:45:53;0.00;99.90
12771;DHT22;6449;47.666;9.160;2024-01-15T05:50:46;0.00;99.90
12771;DHT22;6449;47.666;9.160;2024-01-15T05:55:42;-0.10;99.90
12771;DHT22;6449;47.666;9.160;2024-01-15T06:00:36;0.00;99.90
12771;DHT22;6449;47.666;9.160;2024-01-15T06:05:30;0.00;99.90
12771;DHT22;6449;47.666;9.160;2024-01-15T06:10:23;-0.10;99.90
12771;DHT22;6449;47.666;9.160;2024-01-15T06:15:17;-0.10;99.90
12771;DHT22;6449;47.666;9.160;2024-01-15T06:20:13;-0.10;99.90
12771;DHT22;6449;47.666;9.160;2024-01-15T06:25:07;-0.10;99.90
12771;DHT22;6449;47.666;9.160;2024-01-15T06:30:04;-0.10;99.90
12771;DHT22;6449;47.666;9.160;2024-01-15T06:34:59;-0.10;99.90
12771;DHT22;6449;47.666;9.160;2024-01-15T06:39:53;-0.20;99.90
12771;DHT22;6449;47.666;9.160;2024-01-15T06:44:47;-0.10;99.90
12771;DHT22;6449;47.666;9.160;2024-01-15T06:49:40;-0.10;99.90
12771;DHT22;6449;47.666;9.160;2024-01-15T06:54:34;-0.10;99.90
12771;DHT22;6449;47.666;9.160;2024-01-15T06:59:29;-0.10;99.90
12771;DHT22;6449;47.666;9.160;2024-01-15T07:04:22;0.00;99.90
12771;DHT22;6449;47.666;9.160;2024-01-15T07:09:15;0.00;99.90
12771;DHT22;6449;47.666;9.160;2024-01-15T07:14:09;0.00;99.90
12771;DHT22;6449;47.666;9.160;2024-01-15T07:19:05;0.00;99.90
12771;DHT22;6449;47.666;9.160;2024-01-15T07:23:59;-0.10;99.90
12771;DHT22;6449;47.666;9.160;2024-01-15T07:28:52;-0.10;99.90
12771;DHT22;6449;47.666;9.160;2024-01-15T07:33:46;0.00;99.90
12771;DHT22;6449;47.666;9.160;2024-01-15T07:38:41;0.00;99.90
12771;DHT22;6449;47.666;9.160;2024-01-15T07:43:34;0.00;99.90
12771;DHT22;6449;47.666;9.160;2024-01-15T07:48:28;0.00;99.90
12771;DHT22;6449;47.666;9.160;2024-01-15T07:53:21;0.00;99.90
12771;DHT22;6449;47.666;9.160;2024-01-15T07:58:16;-0.10;99.90
12771;DHT22;6449;47.666;9.160;2024-01-15T08:03:11;-0.10;99.90
12771;DHT22;6449;47.666;9.160;2024-01-15T08:08:05;0.00;99.90
12771;DHT22;6449;47.666;9.160;2024-01-15T08:12:58;0.00;99.90
12771;DHT22;6449;47.666;9.160;2024-01-15T08:17:53;0.00;99.90
12771;DHT22;6449;47.666;9.160;2024-01-15T08:22:47;0.00;99.90
12771;DHT22;6449;47.666;9.160;2024-01-15T08:27:40;0.00;99.90
12771;DHT22;6449;47.666;9.160;2024-01-15T08:32:34;0.00;99.90
12771;DHT22;6449;47.666;9.160;2024-01-15T08:37:34;0.10;99.90
12771;DHT22;6449;47.666;9.160;2024-01-15T08:42:27;0.10;99.90
12771;DHT22;6449;47.666;9.160;2024-01-15T08:47:20;0.10;99.90
12771;DHT22;6449;47.666;9.160;2024-01-15T08:52:17;0.10;99.90
12771;DHT22;6449;47.666;9.160;2024-01-15T08:57:13;0.10;99.90
12771;DHT22;6449;47.666;9.160;2024-01-15T09:02:07;0.20;99.90
12771;DHT22;6449;47.666;9.160;2024-01-15T09:07:01;0.20;99.90
12771;DHT22;6449;47.666;9.160;2024-01-15T09:11:54;0.20;99.90
12771;DHT22;6449;47.666;9.160;2024-01-15T09:16:50;0.20;99.90
12771;DHT22;6449;47.666;9.160;2024-01-15T09:21:50;0.20;99.90
12771;DHT22;6449;47.666;9.160;2024-01-15T09:26:43;0.20;99.90
12771;DHT22;6449;47.666;9.160;2024-01-15T09:31:36;0.20;99.90
12771;DHT22;6449;47.666;9.160;2024-01-15T09:36:31;0.30;99.90
12771;DHT22;6449;47.666;9.160;2024-01-15T09:41:25;0.30;99.90
12771;DHT22;6449;47.666;9.160;2024-01-15T09:46:19;0.40;99.90
12771;DHT22;6449;47.666;9.160;2024-01-15T09:51:12;0.40;99.90
12771;DHT22;6449;47.666;9.160;2024-01-15T09:56:08;0.40;99.90
12771;DHT22;6449;47.666;9.160;2024-01-15T10:01:04;0.50;99.90
12771;DHT22;6449;47.666;9.160;2024-01-15T10:05:59;0.40;99.90
12771;DHT22;6449;47.666;9.160;2024-01-15T10:10:54;0.40;99.90
12771;DHT22;6449;47.666;9.160;2024-01-15T10:15:49;0.50;99.90
12771;DHT22;6449;47.666;9.160;2024-01-15T10:20:45;0.50;99.90
12771;DHT22;6449;47.666;9.160;2024-01-15T10:25:38;0.50;99.90
12771;DHT22;6449;47.666;9.160;2024-01-15T10:30:34;0.60;99.90
12771;DHT22;6449;47.666;9.160;2024-01-15T10:35:33;0.70;99.90
12771;DHT22;6449;47.666;9.160;2024-01-15T10:40:27;0.70;99.90
12771;DHT22;6449;47.666;9.160;2024-01-15T10:45:21;0.70;99.90
12771;DHT22;6449;47.666;9.160;2024-01-15T10:50:15;0.80;99.90
12771;DHT22;6449;47.666;9.160;2024-01-15T10:55:10;0.80;99.90
12771;DHT22;6449;47.666;9.160;2024-01-15T11:00:11;0.80;99.90
12771;DHT22;6449;47.666;9.160;2024-01-15T11:05:07;0.70;99.90
12771;DHT22;6449;47.666;9.160;2024-01-15T11:10:03;0.80;99.90
12771;DHT22;6449;47.666;9.160;2024-01-15T11:15:03;0.90;99.90
12771;DHT22;6449;47.666;9.160;2024-01-15T11:20:06;0.90;99.90
12771;DHT22;6449;47.666;9.160;2024-01-15T11:25:02;0.80;99.90
12771;DHT22;6449;47.666;9.160;2024-01-15T11:30:06;0.70;99.90
12771;DHT22;6449;47.666;9.160;2024-01-15T11:35:05;0.60;99.90
12771;DHT22;6449;47.666;9.160;2024-01-15T11:40:02;0.50;99.90
12771;DHT22;6449;47.666;9.160;2024-01-15T11:44:56;0.50;99.90
12771;DHT22;6449;47.666;9.160;2024-01-15T11:49:58;0.60;99.90
12771;DHT22;6449;47.666;9.160;2024-01-15T11:55:00;0.60;99.90
12771;DHT22;6449;47.666;9.160;2024-01-15T12:00:02;0.70;99.90
12771;DHT22;6449;47.666;9.160;2024-01-15T12:04:57;0.80;99.90
12771;DHT22;6449;47.666;9.160;2024-01-15T12:09:51;0.80;99.90
12771;DHT22;6449;47.666;9.160;2024-01-15T12:14:44;0.80;99.90
12771;DHT22;6449;47.666;9.160;2024-01-15T12:19:38;0.80;99.90
12771;DHT22;6449;47.666;9.160;2024-01-15T12:24:33;0.90;99.90
12771;DHT22;6449;47.666;9.160;2024-01-15T12:29:27;1.00;99.90
12771;DHT22;6449;47.666;9.160;2024-01-15T12:34:20;1.10;99.90
12771;DHT22;6449;47.666;9.160;2024-01-15T12:39:14;1.20;99.90
12771;DHT22;6449;47.666;9.160;2024-01-15T12:44:09;1.20;99.90
12771;DHT22;6449;47.666;9.160;2024-01-15T12:49:04;1.20;99.90
12771;DHT22;6449;47.666;9.160;2024-01-15T12:53:57;1.20;99.90
12771;DHT22;6449;47.666;9.160;2024-01-15T12:58:51;1.20;99.90
12771;DHT22;6449;47.666;9.160;2024-01-15T13:03:50;1.20;99.90
12771;DHT22;6449;47.666;9.160;2024-01-15T13:08:46;1.20;99.90
12771;DHT22;6449;47.666;9.160;2024-01-15T13:13:40;1.20;99.90
12771;DHT22;6449;47.666;9.160;2024-01-15T13:18:35;1.20;99.90
12771;DHT22;6449;47.666;9.160;2024-01-15T13:23:31;1.30;99.90
12771;DHT22;6449;47.666;9.160;2024-01-15T13:28:25;1.20;99.90
12771;DHT22;6449;47.666;9.160;2024-01-15T13:33:19;1.20;99.90
12771;DHT22;6449;47.666;9.160;2024-01-15T13:38:12;1.00;99.90
12771;DHT22;6449;47.666;9.160;2024-01-15T13:43:07;1.10;99.90
12771;DHT22;6449;47.666;9.160;2024-01-15T13:48:01;1.40;99.90
12771;DHT22;6449;47.666;9.160;2024-01-15T13:52:57;1.50;99.90
12771;DHT22;6449;47.666;9.160;2024-01-15T13:57:51;1.70;99.90
12771;DHT22;6449;47.666;9.160;2024-01-15T14:02:46;1.60;99.90
12771;DHT22;6449;47.666;9.160;2024-01-15T14:07:40;1.50;99.90
12771;DHT22;6449;47.666;9.160;2024-01-15T14:12:35;1.50;99.90
12771;DHT22;6449;47.666;9.160;2024-01-15T14:17:28;1.60;99.90
12771;DHT22;6449;47.666;9.160;2024-01-15T14:22:24;1.70;99.90
12771;DHT22;6449;47.666;9.160;2024-01-15T14:27:18;1.70;99.90
12771;DHT22;6449;47.666;9.160;2024-01-15T14:32:14;1.70;99.90
12771;DHT22;6449;47.666;9.160;2024-01-15T14:37:07;1.60;99.90
12771;DHT22;6449;47.666;9.160;2024-01-15T14:42:03;1.60;99.90
12771;DHT22;6449;47.666;9.160;2024-01-15T14:47:00;1.60;99.90
12771;DHT22;6449;47.666;9.160;2024-01-15T14:51:55;1.70;99.90
12771;DHT22;6449;47.666;9.160;2024-01-15T14:56:48;1.60;99.90
12771;DHT22;6449;47.666;9.160;2024-01-15T15:01:45;1.50;99.90
12771;DHT22;6449;47.666;9.160;2024-01-15T15:06:40;1.50;99.90
12771;DHT22;6449;47.666;9.160;2024-01-15T15:11:33;1.40;99.90
12771;DHT22;6449;47.666;9.160;2024-01-15T15:16:27;1.50;99.90
12771;DHT22;6449;47.666;9.160;2024-01-15T15:21:22;1.40;99.90
12771;DHT22;6449;47.666;9.160;2024-01-15T15:26:15;1.30;99.90
12771;DHT22;6449;47.666;9.160;2024-01-15T15:31:10;1.30;99.90
12771;DHT22;6449;47.666;9.160;2024-01-15T15:36:05;1.20;99.90
12771;DHT22;6449;47.666;9.160;2024-01-15T15:41:00;1.20;99.90
12771;DHT22;6449;47.666;9.160;2024-01-15T15:45:54;1.20;99.90
12771;DHT22;6449;47.666;9.160;2024-01-15T15:50:48;1.20;99.90
12771;DHT22;6449;47.666;9.160;2024-01-15T15:55:43;1.10;99.90
12771;DHT22;6449;47.666;9.160;2024-01-15T16:00:38;1.20;99.90
12771;DHT22;6449;47.666;9.160;2024-01-15T16:05:33;1.10;99.90
12771;DHT22;6449;47.666;9.160;2024-01-15T16:10:48;1.10;99.90
12771;DHT22;6449;47.666;9.160;2024-01-15T16:16:18;1.10;99.90
12771;DHT22;6449;47.666;9.160;2024-01-15T16:21:31;1.10;99.90
12771;DHT22;6449;47.666;9.160;2024-01-15T16:26:49;1.10;99.90
12771;DHT22;6449;47.666;9.160;2024-01-15T16:31:51;1.10;99.90
12771;DHT22;6449;47.666;9.160;2024-01-15T16:36:57;1.10;99.90
12771;DHT22;6449;47.666;9.160;2024-01-15T16:41:50;1.10;99.90
12771;DHT22;6449;47.666;9.160;2024-01-15T16:47:03;1.20;99.90
12771;DHT22;6449;47.666;9.160;2024-01-15T16:51:59;1.20;99.90
12771;DHT22;6449;47.666;9.160;2024-01-15T16:56:53;1.10;99.90
12771;DHT22;6449;47.666;9.160;2024-01-15T17:01:48;1.20;99.90
12771;DHT22;6449;47.666;9.160;2024-01-15T17:06:46;1.10;99.90
12771;DHT22;6449;47.666;9.160;2024-01-15T17:11:39;1.10;99.90
12771;DHT22;6449;47.666;9.160;2024-01-15T17:16:33;1.20;99.90
12771;DHT22;6449;47.666;9.160;2024-01-15T17:21:26;1.10;99.90
12771;DHT22;6449;47.666;9.160;2024-01-15T17:26:21;1.20;99.90
12771;DHT22;6449;47.666;9.160;2024-01-15T17:31:14;1.20;99.90
12771;DHT22;6449;47.666;9.160;2024-01-15T17:36:08;1.10;99.90
12771;DHT22;6449;47.666;9.160;2024-01-15T17:41:02;1.10;99.90
12771;DHT22;6449;47.666;9.160;2024-01-15T17:45:57;1.00;99.90
12771;DHT22;6449;47.666;9.160;2024-01-15T17:50:52;1.00;99.90
12771;DHT22;6449;47.666;9.160;2024-01-15T17:55:47;1.00;99.90
12771;DHT22;6449;47.666;9.160;2024-01-15T18:00:42;0.90;99.90
12771;DHT22;6449;47.666;9.160;2024-01-15T18:05:37;0.80;99.90
12771;DHT22;6449;47.666;9.160;2024-01-15T18:10:30;0.80;99.90
12771;DHT22;6449;47.666;9.160;2024-01-15T18:15:27;0.70;99.90
12771;DHT22;6449;47.666;9.160;2024-01-15T18:27:03;0.70;99.90
12771;DHT22;6449;47.666;9.160;2024-01-15T18:32:38;0.70;99.90
12771;DHT22;6449;47.666;9.160;2024-01-15T18:37:44;0.60;99.90
12771;DHT22;6449;47.666;9.160;2024-01-15T18:42:47;0.70;99.90
12771;DHT22;6449;47.666;9.160;2024-01-15T18:47:41;0.60;99.90
12771;DHT22;6449;47.666;9.160;2024-01-15T18:52:50;0.60;99.90
12771;DHT22;6449;47.666;9.160;2024-01-15T18:58:01;0.40;99.90
12771;DHT22;6449;47.666;9.160;2024-01-15T19:02:57;0.30;99.90
12771;DHT22;6449;47.666;9.160;2024-01-15T19:07:58;0.10;99.90
12771;DHT22;6449;47.666;9.160;2024-01-15T19:13:31;0.00;99.90
12771;DHT22;6449;47.666;9.160;2024-01-15T19:18:28;-0.10;99.90
12771;DHT22;6449;47.666;9.160;2024-01-15T19:23:23;-0.20;99.90
12771;DHT22;6449;47.666;9.160;2024-01-15T19:28:17;-0.20;99.90
12771;DHT22;6449;47.666;9.160;2024-01-15T19:33:16;-0.20;99.90
12771;DHT22;6449;47.666;9.160;2024-01-15T19:38:19;-0.10;99.90
12771;DHT22;6449;47.666;9.160;2024-01-15T19:43:20;0.00;99.90
12771;DHT22;6449;47.666;9.160;2024-01-15T19:48:14;-0.10;99.90
12771;DHT22;6449;47.666;9.160;2024-01-15T19:53:09;-0.10;99.90
12771;DHT22;6449;47.666;9.160;2024-01-15T19:58:07;-0.10;99.90
12771;DHT22;6449;47.666;9.160;2024-01-15T20:03:02;-0.20;99.90
12771;DHT22;6449;47.666;9.160;2024-01-15T20:07:56;-0.10;99.90
12771;DHT22;6449;47.666;9.160;2024-01-15T20:12:49;-0.20;99.90
12771;DHT22;6449;47.666;9.160;2024-01-15T20:17:46;-0.20;99.90
12771;DHT22;6449;47.666;9.160;2024-01-15T20:22:40;-0.20;99.90
12771;DHT22;6449;47.666;9.160;2024-01-15T20:27:34;-0.10;99.90
12771;DHT22;6449;47.666;9.160;2024-01-15T20:32:27;-0.10;99.90
12771;DHT22;6449;47.666;9.160;2024-01-15T20:37:24;0.00;99.90
12771;DHT22;6449;47.666;9.160;2024-01-15T20:42:18;0.00;99.90
12771;DHT22;6449;47.666;9.160;2024-01-15T20:47:12;0.10;99.90
12771;DHT22;6449;47.666;9.160;2024-01-15T20:52:16;0.20;99.90
12771;DHT22;6449;47.666;9.160;2024-01-15T20:57:20;0.20;99.90
12771;DHT22;6449;47.666;9.160;2024-01-15T21:02:14;0.10;99.90
12771;DHT22;6449;47.666;9.160;2024-01-15T21:07:09;0.00;99.90
12771;DHT22;6449;47.666;9.160;2024-01-15T21:12:06;0.00;99.90
12771;DHT22;6449;47.666;9.160;2024-01-15T21:17:04;0.00;99.90
12771;DHT22;6449;47.666;9.160;2024-01-15T21:21:58;0.00;99.90
12771;DHT22;6449;47.666;9.160;2024-01-15T21:26:52;0.00;99.90
12771;DHT22;6449;47.666;9.160;2024-01-15T21:31:46;0.10;99.90
12771;DHT22;6449;47.666;9.160;2024-01-15T21:36:42;0.00;99.90
12771;DHT22;6449;47.666;9.160;2024-01-15T21:41:38;0.00;99.90
12771;DHT22;6449;47.666;9.160;2024-01-15T21:46:35;0.00;99.90
12771;DHT22;6449;47.666;9.160;2024-01-15T21:51:38;-0.10;99.90
12771;DHT22;6449;47.666;9.160;2024-01-15T21:56:38;-0.20;99.90
12771;DHT22;6449;47.666;9.160;2024-01-15T22:01:31;-0.30;99.90
12771;DHT22;6449;47.666;9.160;2024-01-15T22:06:25;-0.30;99.90
12771;DHT22;6449;47.666;9.160;2024-01-15T22:11:22;-0.30;99.90
12771;DHT22;6449;47.666;9.160;2024-01-15T22:16:15;-0.40;99.90
12771;DHT22;6449;47.666;9.160;2024-01-15T22:21:09;-0.50;99.90
12771;DHT22;6449;47.666;9.160;2024-01-15T22:26:04;-0.50;99.90
12771;DHT22;6449;47.666;9.160;2024-01-15T22:31:00;-0.40;99.90
12771;DHT22;6449;47.666;9.160;2024-01-15T22:35:54;-0.50;99.90
12771;DHT22;6449;47.666;9.160;2024-01-15T22:40:47;-0.60;99.90
12771;DHT22;6449;47.666;9.160;2024-01-15T22:45:41;-0.70;99.90
12771;DHT22;6449;47.666;9.160;2024-01-15T22:50:36;-0.80;99.90
12771;DHT22;6449;47.666;9.160;2024-01-15T22:55:29;-0.90;99.90
12771;DHT22;6449;47.666;9.160;2024-01-15T23:00:23;-0.90;99.90
12771;DHT22;6449;47.666;9.160;2024-01-15T23:05:16;-0.90;99.90
12771;DHT22;6449;47.666;9.160;2024-01-15T23:10:12;-0.90;99.90
12771;DHT22;6449;47.666;9.160;2024-01-15T23:15:06;-0.80;99.90
12771;DHT22;6449;47.666;9.160;2024-01-15T23:20:00;-0.80;99.90
12771;DHT22;6449;47.666;9.160;2024-01-15T23:24:53;-0.80;99.90
12771;DHT22;6449;47.666;9.160;2024-01-15T23:29:48;-0.80;99.90
12771;DHT22;6449;47.666;9.160;2024-01-15T23:34:41;-1.10;99.90
12771;DHT22;6449;47.666;9.160;2024-01-15T23:39:35;-1.30;99.90
12771;DHT22;6449;47.666;9.160;2024-01-15T23:44:28;-1.50;99.90
12771;DHT22;6449;47.666;9.160;2024-01-15T23:49:23;-1.50;99.90
12771;DHT22;6449;47.666;9.160;2024-01-15T23:54:16;-1.30;99.90
12771;DHT22;6449;47.666;9.160;2024-01-15T23:59:12;-1.20;99.90
